sensor_id;sensor_type;location;lat;lon;timestamp;temperature;humidity
11961;DHT22;6040;49.358;11.140;2022-11-12T00:01:08;3.40;99.90
11961;DHT22;6040;49.358;11.140;2022-11-12T00:03:35;3.40;99.90
11961;DHT22;6040;49.358;11.140;2022-11-12T00:06:03;3.30;99.90
11961;DHT22;6040;49.358;11.140;2022-11-12T00:08:30;3.30;99.90
11961;DHT22;6040;49.358;11.140;2022-11-12T00:10:57;3.30;99.90
11961;DHT22;6040;49.358;11.140;2022-11-12T00:13:24;3.30;99.90
11961;DHT22;6040;49.358;11.140;2022-11-12T00:15:51;3.30;99.90
11961;DHT22;6040;49.358;11.140;2022-11-12T00:18:17;3.20;99.90
11961;DHT22;6040;49.358;11.140;2022-11-12T00:20:44;3.20;99.90
11961;DHT22;6040;49.358;11.140;2022-11-12T00:23:12;3.20;99.90
11961;DHT22;6040;49.358;11.140;2022-11-12T00:25:39;3.20;99.90
11961;DHT22;6040;49.358;11.140;2022-11-12T00:28:08;3.10;99.90
11961;DHT22;6040;49.358;11.140;2022-11-12T00:30:37;3.10;99.90
11961;DHT22;6040;49.358;11.140;2022-11-12T00:33:04;3.10;99.90
11961;DHT22;6040;49.358;11.140;2022-11-12T00:35:32;4.60;99.90
11961;DHT22;6040;49.358;11.140;2022-11-12T00:37:59;3.10;99.90
11961;DHT22;6040;49.358;11.140;2022-11-12T00:40:27;3.10;99.90
11961;DHT22;6040;49.358;11.140;2022-11-12T00:42:54;3.10;99.90
11961;DHT22;6040;49.358;11.140;2022-11-12T00:45:22;3.10;99.90
11961;DHT22;6040;49.358;11.140;2022-11-12T00:47:49;5.10;99.90
11961;DHT22;6040;49.358;11.140;2022-11-12T00:50:19;3.10;99.90
11961;DHT22;6040;49.358;11.140;2022-11-12T00:52:46;3.10;99.90
11961;DHT22;6040;49.358;11.140;2022-11-12T00:55:13;3.20;99.90
11961;DHT22;6040;49.358;11.140;2022-11-12T00:57:41;3.20;99.90
11961;DHT22;6040;49.358;11.140;2022-11-12T01:00:14;3.20;99.90
11961;DHT22;6040;49.358;11.140;2022-11-12T01:02:41;3.20;99.90
11961;DHT22;6040;49.358;11.140;2022-11-12T01:05:08;3.20;99.90
11961;DHT22;6040;49.358;11.140;2022-11-12T01:07:35;3.30;99.90
11961;DHT22;6040;49.358;11.140;2022-11-12T01:10:02;3.20;99.90
11961;DHT22;6040;49.358;11.140;2022-11-12T01:12:30;5.10;99.90
11961;DHT22;6040;49.358;11.140;2022-11-12T01:14:58;3.30;99.90
11961;DHT22;6040;49.358;11.140;2022-11-12T01:17:26;3.40;99.90
11961;DHT22;6040;49.358;11.140;2022-11-12T01:19:52;3.30;99.90
11961;DHT22;6040;49.358;11.140;2022-11-12T01:22:19;3.30;99.90
11961;DHT22;6040;49.358;11.140;2022-11-12T01:24:46;3.30;99.90
11961;DHT22;6040;49.358;11.140;2022-11-12T01:27:13;3.30;99.90
11961;DHT22;6040;49.358;11.140;2022-11-12T01:29:40;3.40;99.90
11961;DHT22;6040;49.358;11.140;2022-11-12T01:32:08;3.40;99.90
11961;DHT22;6040;49.358;11.140;2022-11-12T01:34:35;3.40;99.90
11961;DHT22;6040;49.358;11.140;2022-11-12T01:37:02;3.50;99.90
11961;DHT22;6040;49.358;11.140;2022-11-12T01:39:28;5.50;99.90
11961;DHT22;6040;49.358;11.140;2022-11-12T01:41:55;5.00;99.90
11961;DHT22;6040;49.358;11.140;2022-11-12T01:44:23;3.40;99.90
11961;DHT22;6040;49.358;11.140;2022-11-12T01:46:58;3.40;99.90
11961;DHT22;6040;49.358;11.140;2022-11-12T01:49:30;3.30;99.90
11961;DHT22;6040;49.358;11.140;2022-11-12T01:52:05;3.30;99.90
11961;DHT22;6040;49.358;11.140;2022-11-12T01:54:34;3.30;99.90
11961;DHT22;6040;49.358;11.140;2022-11-12T01:57:01;3.30;99.90
11961;DHT22;6040;49.358;11.140;2022-11-12T01:59:31;3.30;99.90
11961;DHT22;6040;49.358;11.140;2022-11-12T02:01:59;3.30;99.90
11961;DHT22;6040;49.358;11.140;2022-11-12T02:04:28;3.30;99.90
11961;DHT22;6040;49.358;11.140;2022-11-12T02:06:56;3.30;99.90
11961;DHT22;6040;49.358;11.140;2022-11-12T02:09:24;3.30;99.90
11961;DHT22;6040;49.358;11.140;2022-11-12T02:11:51;3.30;99.90
11961;DHT22;6040;49.358;11.140;2022-11-12T02:14:18;4.80;99.90
11961;DHT22;6040;49.358;11.140;2022-11-12T02:16:45;3.30;99.90
11961;DHT22;6040;49.358;11.140;2022-11-12T02:19:15;4.90;99.90
11961;DHT22;6040;49.358;11.140;2022-11-12T02:21:43;3.30;99.90
11961;DHT22;6040;49.358;11.140;2022-11-12T02:24:33;3.30;99.90
11961;DHT22;6040;49.358;11.140;2022-11-12T02:27:03;3.40;99.90
11961;DHT22;6040;49.358;11.140;2022-11-12T02:29:31;3.80;99.90
11961;DHT22;6040;49.358;11.140;2022-11-12T02:31:58;3.40;99.90
11961;DHT22;6040;49.358;11.140;2022-11-12T02:34:24;3.50;99.90
11961;DHT22;6040;49.358;11.140;2022-11-12T02:36:53;3.50;99.90
11961;DHT22;6040;49.358;11.140;2022-11-12T02:39:19;3.50;99.90
11961;DHT22;6040;49.358;11.140;2022-11-12T02:41:46;3.50;99.90
11961;DHT22;6040;49.358;11.140;2022-11-12T02:44:13;3.50;99.90
11961;DHT22;6040;49.358;11.140;2022-11-12T02:46:40;3.50;99.90
11961;DHT22;6040;49.358;11.140;2022-11-12T02:49:06;3.50;99.90
11961;DHT22;6040;49.358;11.140;2022-11-12T02:51:33;3.50;99.90
11961;DHT22;6040;49.358;11.140;2022-11-12T02:54:01;3.60;99.90
11961;DHT22;6040;49.358;11.140;2022-11-12T02:56:28;3.60;99.90
11961;DHT22;6040;49.358;11.140;2022-11-12T02:58:55;3.50;99.90
11961;DHT22;6040;49.358;11.140;2022-11-12T03:01:22;3.50;99.90
11961;DHT22;6040;49.358;11.140;2022-11-12T03:03:49;3.40;99.90
11961;DHT22;6040;49.358;11.140;2022-11-12T03:06:16;3.40;99.90
11961;DHT22;6040;49.358;11.140;2022-11-12T03:08:43;3.40;99.90
11961;DHT22;6040;49.358;11.140;2022-11-12T03:11:13;3.40;99.90
11961;DHT22;6040;49.358;11.140;2022-11-12T03:13:40;3.50;99.90
11961;DHT22;6040;49.358;11.140;2022-11-12T03:16:07;3.30;99.90
11961;DHT22;6040;49.358;11.140;2022-11-12T03:18:34;3.30;99.90
11961;DHT22;6040;49.358;11.140;2022-11-12T03:21:02;3.30;99.90
11961;DHT22;6040;49.358;11.140;2022-11-12T03:23:29;3.30;99.90
11961;DHT22;6040;49.358;11.140;2022-11-12T03:25:56;3.40;99.90
11961;DHT22;6040;49.358;11.140;2022-11-12T03:28:24;3.30;99.90
11961;DHT22;6040;49.358;11.140;2022-11-12T03:30:56;3.30;99.90
11961;DHT22;6040;49.358;11.140;2022-11-12T03:33:23;3.20;99.90
11961;DHT22;6040;49.358;11.140;2022-11-12T03:35:50;3.20;99.90
11961;DHT22;6040;49.358;11.140;2022-11-12T03:38:17;3.30;99.90
11961;DHT22;6040;49.358;11.140;2022-11-12T03:40:43;3.50;99.90
11961;DHT22;6040;49.358;11.140;2022-11-12T03:43:10;3.20;99.90
11961;DHT22;6040;49.358;11.140;2022-11-12T03:45:38;3.20;99.90
11961;DHT22;6040;49.358;11.140;2022-11-12T03:48:05;3.10;99.90
11961;DHT22;6040;49.358;11.140;2022-11-12T03:50:32;3.10;99.90
11961;DHT22;6040;49.358;11.140;2022-11-12T03:52:59;3.10;99.90
11961;DHT22;6040;49.358;11.140;2022-11-12T03:55:27;3.10;99.90
11961;DHT22;6040;49.358;11.140;2022-11-12T03:57:55;3.10;99.90
11961;DHT22;6040;49.358;11.140;2022-11-12T04:00:24;3.10;99.90
11961;DHT22;6040;49.358;11.140;2022-11-12T04:02:52;3.00;99.90
11961;DHT22;6040;49.358;11.140;2022-11-12T04:05:19;3.00;99.90
11961;DHT22;6040;49.358;11.140;2022-11-12T04:08:06;3.00;99.90
11961;DHT22;6040;49.358;11.140;2022-11-12T04:10:51;2.90;99.90
11961;DHT22;6040;49.358;11.140;2022-11-12T04:13:17;2.90;99.90
11961;DHT22;6040;49.358;11.140;2022-11-12T04:16:03;5.20;99.90
11961;DHT22;6040;49.358;11.140;2022-11-12T04:18:52;2.90;99.90
11961;DHT22;6040;49.358;11.140;2022-11-12T04:21:38;2.80;99.90
11961;DHT22;6040;49.358;11.140;2022-11-12T04:24:24;2.80;99.90
11961;DHT22;6040;49.358;11.140;2022-11-12T04:27:11;2.80;99.90
11961;DHT22;6040;49.358;11.140;2022-11-12T04:29:38;2.80;99.90
11961;DHT22;6040;49.358;11.140;2022-11-12T04:32:23;4.30;99.90
11961;DHT22;6040;49.358;11.140;2022-11-12T04:34:52;2.70;99.90
11961;DHT22;6040;49.358;11.140;2022-11-12T04:37:19;2.70;99.90
11961;DHT22;6040;49.358;11.140;2022-11-12T04:39:46;2.60;99.90
11961;DHT22;6040;49.358;11.140;2022-11-12T04:42:13;2.60;99.90
11961;DHT22;6040;49.358;11.140;2022-11-12T04:44:57;4.20;99.90
11961;DHT22;6040;49.358;11.140;2022-11-12T04:47:34;2.50;99.90
11961;DHT22;6040;49.358;11.140;2022-11-12T04:50:04;2.50;99.90
11961;DHT22;6040;49.358;11.140;2022-11-12T04:52:31;2.50;99.90
11961;DHT22;6040;49.358;11.140;2022-11-12T04:54:58;2.50;99.90
11961;DHT22;6040;49.358;11.140;2022-11-12T04:57:25;2.40;99.90
11961;DHT22;6040;49.358;11.140;2022-11-12T04:59:52;2.40;99.90
11961;DHT22;6040;49.358;11.140;2022-11-12T05:02:19;3.50;99.90
11961;DHT22;6040;49.358;11.140;2022-11-12T05:04:46;2.30;99.90
11961;DHT22;6040;49.358;11.140;2022-11-12T05:07:15;2.30;99.90
11961;DHT22;6040;49.358;11.140;2022-11-12T05:09:42;2.20;99.90
11961;DHT22;6040;49.358;11.140;2022-11-12T05:12:09;2.20;99.90
11961;DHT22;6040;49.358;11.140;2022-11-12T05:14:36;2.20;99.90
11961;DHT22;6040;49.358;11.140;2022-11-12T05:17:03;2.20;99.90
11961;DHT22;6040;49.358;11.140;2022-11-12T05:19:30;2.10;99.90
11961;DHT22;6040;49.358;11.140;2022-11-12T05:21:58;2.10;99.90
11961;DHT22;6040;49.358;11.140;2022-11-12T05:24:36;2.10;99.90
11961;DHT22;6040;49.358;11.140;2022-11-12T05:27:05;2.10;99.90
11961;DHT22;6040;49.358;11.140;2022-11-12T05:29:32;2.10;99.90
11961;DHT22;6040;49.358;11.140;2022-11-12T05:31:59;2.10;99.90
11961;DHT22;6040;49.358;11.140;2022-11-12T05:34:26;2.00;99.90
11961;DHT22;6040;49.358;11.140;2022-11-12T05:36:53;2.00;99.90
11961;DHT22;6040;49.358;11.140;2022-11-12T05:39:20;2.00;99.90
11961;DHT22;6040;49.358;11.140;2022-11-12T05:41:49;1.90;99.90
11961;DHT22;6040;49.358;11.140;2022-11-12T05:44:16;1.90;99.90
11961;DHT22;6040;49.358;11.140;2022-11-12T05:46:43;1.80;99.90
11961;DHT22;6040;49.358;11.140;2022-11-12T05:49:10;1.80;99.90
11961;DHT22;6040;49.358;11.140;2022-11-12T05:51:37;1.80;99.90
11961;DHT22;6040;49.358;11.140;2022-11-12T05:54:04;1.80;99.90
11961;DHT22;6040;49.358;11.140;2022-11-12T05:56:31;1.80;99.90
11961;DHT22;6040;49.358;11.140;2022-11-12T05:59:00;1.80;99.90
11961;DHT22;6040;49.358;11.140;2022-11-12T06:01:27;1.80;99.90
11961;DHT22;6040;49.358;11.140;2022-11-12T06:03:54;1.70;99.90
11961;DHT22;6040;49.358;11.140;2022-11-12T06:06:21;1.70;99.90
11961;DHT22;6040;49.358;11.140;2022-11-12T06:08:48;1.60;99.90
11961;DHT22;6040;49.358;11.140;2022-11-12T06:11:15;1.60;99.90
11961;DHT22;6040;49.358;11.140;2022-11-12T06:13:42;1.60;99.90
11961;DHT22;6040;49.358;11.140;2022-11-12T06:16:10;1.70;99.90
11961;DHT22;6040;49.358;11.140;2022-11-12T06:18:37;1.60;99.90
11961;DHT22;6040;49.358;11.140;2022-11-12T06:21:05;1.60;99.90
11961;DHT22;6040;49.358;11.140;2022-11-12T06:23:45;1.60;99.90
11961;DHT22;6040;49.358;11.140;2022-11-12T06:26:12;1.60;99.90
11961;DHT22;6040;49.358;11.140;2022-11-12T06:28:39;1.60;99.90
11961;DHT22;6040;49.358;11.140;2022-11-12T06:31:06;1.60;99.90
11961;DHT22;6040;49.358;11.140;2022-11-12T06:33:34;1.60;99.90
11961;DHT22;6040;49.358;11.140;2022-11-12T06:36:03;1.60;99.90
11961;DHT22;6040;49.358;11.140;2022-11-12T06:38:30;1.60;99.90
11961;DHT22;6040;49.358;11.140;2022-11-12T06:40:57;1.70;99.90
11961;DHT22;6040;49.358;11.140;2022-11-12T06:43:24;1.70;99.90
11961;DHT22;6040;49.358;11.140;2022-11-12T06:45:51;1.70;99.90
11961;DHT22;6040;49.358;11.140;2022-11-12T06:48:18;1.80;99.90
11961;DHT22;6040;49.358;11.140;2022-11-12T06:50:46;1.80;99.90
11961;DHT22;6040;49.358;11.140;2022-11-12T06:53:13;1.90;99.90
11961;DHT22;6040;49.358;11.140;2022-11-12T06:55:40;2.00;99.90
11961;DHT22;6040;49.358;11.140;2022-11-12T06:58:06;2.10;99.90
11961;DHT22;6040;49.358;11.140;2022-11-12T07:00:33;2.20;99.90
11961;DHT22;6040;49.358;11.140;2022-11-12T07:03:05;2.20;99.90
11961;DHT22;6040;49.358;11.140;2022-11-12T07:05:35;2.30;99.90
11961;DHT22;6040;49.358;11.140;2022-11-12T07:08:04;2.70;99.90
11961;DHT22;6040;49.358;11.140;2022-11-12T07:10:31;2.50;99.90
11961;DHT22;6040;49.358;11.140;2022-11-12T07:12:58;2.70;99.90
11961;DHT22;6040;49.358;11.140;2022-11-12T07:15:25;3.00;99.90
11961;DHT22;6040;49.358;11.140;2022-11-12T07:17:52;3.40;99.90
11961;DHT22;6040;49.358;11.140;2022-11-12T07:20:19;3.80;99.90
11961;DHT22;6040;49.358;11.140;2022-11-12T07:22:46;4.40;99.90
11961;DHT22;6040;49.358;11.140;2022-11-12T07:25:14;4.90;99.90
11961;DHT22;6040;49.358;11.140;2022-11-12T07:27:41;5.30;99.90
11961;DHT22;6040;49.358;11.140;2022-11-12T07:30:08;5.60;99.90
11961;DHT22;6040;49.358;11.140;2022-11-12T07:32:35;5.90;99.90
11961;DHT22;6040;49.358;11.140;2022-11-12T07:35:02;6.10;99.90
11961;DHT22;6040;49.358;11.140;2022-11-12T07:37:29;6.40;99.90
11961;DHT22;6040;49.358;11.140;2022-11-12T07:39:56;7.10;99.90
11961;DHT22;6040;49.358;11.140;2022-11-12T07:42:25;7.20;99.90
11961;DHT22;6040;49.358;11.140;2022-11-12T07:44:52;8.30;99.90
11961;DHT22;6040;49.358;11.140;2022-11-12T07:47:19;7.40;99.90
11961;DHT22;6040;49.358;11.140;2022-11-12T07:49:46;7.20;99.90
11961;DHT22;6040;49.358;11.140;2022-11-12T07:52:12;7.50;99.90
11961;DHT22;6040;49.358;11.140;2022-11-12T07:54:42;7.50;99.90
11961;DHT22;6040;49.358;11.140;2022-11-12T07:57:09;7.30;99.90
11961;DHT22;6040;49.358;11.140;2022-11-12T07:59:37;7.30;99.90
11961;DHT22;6040;49.358;11.140;2022-11-12T08:02:04;7.20;99.90
11961;DHT22;6040;49.358;11.140;2022-11-12T08:04:34;7.10;99.90
11961;DHT22;6040;49.358;11.140;2022-11-12T08:07:01;7.00;99.90
11961;DHT22;6040;49.358;11.140;2022-11-12T08:09:27;6.90;99.90
11961;DHT22;6040;49.358;11.140;2022-11-12T08:11:54;7.10;99.90
11961;DHT22;6040;49.358;11.140;2022-11-12T08:14:21;7.20;99.90
11961;DHT22;6040;49.358;11.140;2022-11-12T08:16:50;7.30;99.90
11961;DHT22;6040;49.358;11.140;2022-11-12T08:19:17;7.20;99.90
11961;DHT22;6040;49.358;11.140;2022-11-12T08:21:44;7.40;99.90
11961;DHT22;6040;49.358;11.140;2022-11-12T08:24:11;7.50;99.90
11961;DHT22;6040;49.358;11.140;2022-11-12T08:26:37;7.70;99.90
11961;DHT22;6040;49.358;11.140;2022-11-12T08:29:04;7.50;99.90
11961;DHT22;6040;49.358;11.140;2022-11-12T08:31:31;7.70;99.90
11961;DHT22;6040;49.358;11.140;2022-11-12T08:33:59;7.80;99.90
11961;DHT22;6040;49.358;11.140;2022-11-12T08:36:36;8.00;99.90
11961;DHT22;6040;49.358;11.140;2022-11-12T08:39:03;8.30;99.90
11961;DHT22;6040;49.358;11.140;2022-11-12T08:41:30;8.60;99.90
11961;DHT22;6040;49.358;11.140;2022-11-12T08:43:57;8.80;99.90
11961;DHT22;6040;49.358;11.140;2022-11-12T08:46:24;9.00;99.90
11961;DHT22;6040;49.358;11.140;2022-11-12T08:48:51;9.30;99.90
11961;DHT22;6040;49.358;11.140;2022-11-12T08:51:19;9.30;99.90
11961;DHT22;6040;49.358;11.140;2022-11-12T08:53:46;9.50;99.90
11961;DHT22;6040;49.358;11.140;2022-11-12T08:56:13;9.40;99.90
11961;DHT22;6040;49.358;11.140;2022-11-12T08:58:40;9.50;99.90
11961;DHT22;6040;49.358;11.140;2022-11-12T09:01:07;9.60;99.90
11961;DHT22;6040;49.358;11.140;2022-11-12T09:03:34;9.60;99.90
11961;DHT22;6040;49.358;11.140;2022-11-12T09:06:02;9.50;99.90
11961;DHT22;6040;49.358;11.140;2022-11-12T09:08:32;9.70;99.90
11961;DHT22;6040;49.358;11.140;2022-11-12T09:10:59;10.00;99.90
11961;DHT22;6040;49.358;11.140;2022-11-12T09:13:26;10.30;99.90
11961;DHT22;6040;49.358;11.140;2022-11-12T09:15:53;10.50;99.90
11961;DHT22;6040;49.358;11.140;2022-11-12T09:18:19;10.30;99.90
11961;DHT22;6040;49.358;11.140;2022-11-12T09:20:46;10.70;99.90
11961;DHT22;6040;49.358;11.140;2022-11-12T09:23:14;10.90;99.90
11961;DHT22;6040;49.358;11.140;2022-11-12T09:25:43;11.00;99.90
11961;DHT22;6040;49.358;11.140;2022-11-12T09:28:12;11.10;99.90
11961;DHT22;6040;49.358;11.140;2022-11-12T09:30:42;11.30;99.90
11961;DHT22;6040;49.358;11.140;2022-11-12T09:33:09;12.30;99.90
11961;DHT22;6040;49.358;11.140;2022-11-12T09:35:36;11.40;99.90
11961;DHT22;6040;49.358;11.140;2022-11-12T09:38:03;11.60;99.90
11961;DHT22;6040;49.358;11.140;2022-11-12T09:40:38;12.80;99.90
11961;DHT22;6040;49.358;11.140;2022-11-12T09:43:17;11.60;99.90
11961;DHT22;6040;49.358;11.140;2022-11-12T09:45:48;11.80;99.90
11961;DHT22;6040;49.358;11.140;2022-11-12T09:48:19;12.00;99.90
11961;DHT22;6040;49.358;11.140;2022-11-12T09:50:53;12.20;99.90
11961;DHT22;6040;49.358;11.140;2022-11-12T09:53:27;13.70;99.90
11961;DHT22;6040;49.358;11.140;2022-11-12T09:55:56;12.40;99.90
11961;DHT22;6040;49.358;11.140;2022-11-12T09:58:25;13.00;99.90
11961;DHT22;6040;49.358;11.140;2022-11-12T10:00:54;12.30;99.90
11961;DHT22;6040;49.358;11.140;2022-11-12T10:03:32;12.20;99.90
11961;DHT22;6040;49.358;11.140;2022-11-12T10:06:06;12.30;99.90
11961;DHT22;6040;49.358;11.140;2022-11-12T10:08:45;12.10;99.90
11961;DHT22;6040;49.358;11.140;2022-11-12T10:11:33;12.10;99.90
11961;DHT22;6040;49.358;11.140;2022-11-12T10:14:32;12.00;99.90
11961;DHT22;6040;49.358;11.140;2022-11-12T10:17:07;11.90;99.90
11961;DHT22;6040;49.358;11.140;2022-11-12T10:19:48;11.80;99.90
11961;DHT22;6040;49.358;11.140;2022-11-12T10:22:30;11.60;99.90
11961;DHT22;6040;49.358;11.140;2022-11-12T10:25:11;11.40;99.90
11961;DHT22;6040;49.358;11.140;2022-11-12T10:27:40;11.40;99.90
11961;DHT22;6040;49.358;11.140;2022-11-12T10:30:14;11.30;99.90
11961;DHT22;6040;49.358;11.140;2022-11-12T10:32:42;11.30;99.90
11961;DHT22;6040;49.358;11.140;2022-11-12T10:35:11;11.30;99.90
11961;DHT22;6040;49.358;11.140;2022-11-12T10:37:44;11.40;99.90
11961;DHT22;6040;49.358;11.140;2022-11-12T10:40:26;11.80;99.90
11961;DHT22;6040;49.358;11.140;2022-11-12T10:42:56;11.70;99.90
11961;DHT22;6040;49.358;11.140;2022-11-12T10:45:25;11.90;99.90
11961;DHT22;6040;49.358;11.140;2022-11-12T10:47:52;12.00;99.90
11961;DHT22;6040;49.358;11.140;2022-11-12T10:50:20;12.10;99.90
11961;DHT22;6040;49.358;11.140;2022-11-12T10:52:57;13.60;99.90
11961;DHT22;6040;49.358;11.140;2022-11-12T10:55:26;14.40;99.90
11961;DHT22;6040;49.358;11.140;2022-11-12T10:58:13;12.40;99.90
11961;DHT22;6040;49.358;11.140;2022-11-12T11:00:56;12.40;99.90
11961;DHT22;6040;49.358;11.140;2022-11-12T11:03:26;12.70;99.90
11961;DHT22;6040;49.358;11.140;2022-11-12T11:05:56;12.70;99.90
11961;DHT22;6040;49.358;11.140;2022-11-12T11:08:37;12.70;99.90
11961;DHT22;6040;49.358;11.140;2022-11-12T11:11:23;12.70;99.90
11961;DHT22;6040;49.358;11.140;2022-11-12T11:13:52;12.80;99.90
11961;DHT22;6040;49.358;11.140;2022-11-12T11:16:22;13.30;99.90
11961;DHT22;6040;49.358;11.140;2022-11-12T11:18:52;12.70;99.90
11961;DHT22;6040;49.358;11.140;2022-11-12T11:21:29;12.70;99.90
11961;DHT22;6040;49.358;11.140;2022-11-12T11:24:11;12.70;99.90
11961;DHT22;6040;49.358;11.140;2022-11-12T11:26:51;13.00;99.90
11961;DHT22;6040;49.358;11.140;2022-11-12T11:32:25;13.20;99.90
11961;DHT22;6040;49.358;11.140;2022-11-12T11:35:05;13.30;99.90
11961;DHT22;6040;49.358;11.140;2022-11-12T11:37:41;13.30;99.90
11961;DHT22;6040;49.358;11.140;2022-11-12T11:40:19;13.50;99.90
11961;DHT22;6040;49.358;11.140;2022-11-12T11:43:11;13.60;99.90
11961;DHT22;6040;49.358;11.140;2022-11-12T11:46:00;13.60;99.90
11961;DHT22;6040;49.358;11.140;2022-11-12T11:48:42;13.70;99.90
11961;DHT22;6040;49.358;11.140;2022-11-12T11:51:28;13.80;99.90
11961;DHT22;6040;49.358;11.140;2022-11-12T11:54:07;14.00;99.90
11961;DHT22;6040;49.358;11.140;2022-11-12T11:56:41;13.90;99.90
11961;DHT22;6040;49.358;11.140;2022-11-12T11:59:16;14.00;99.90
11961;DHT22;6040;49.358;11.140;2022-11-12T12:01:59;15.00;99.90
11961;DHT22;6040;49.358;11.140;2022-11-12T12:04:41;13.80;99.90
11961;DHT22;6040;49.358;11.140;2022-11-12T12:07:20;13.90;99.90
11961;DHT22;6040;49.358;11.140;2022-11-12T12:09:56;13.90;99.90
11961;DHT22;6040;49.358;11.140;2022-11-12T12:12:39;14.00;99.90
11961;DHT22;6040;49.358;11.140;2022-11-12T12:15:24;14.00;99.90
11961;DHT22;6040;49.358;11.140;2022-11-12T12:18:03;13.90;99.90
11961;DHT22;6040;49.358;11.140;2022-11-12T12:20:39;13.70;99.90
11961;DHT22;6040;49.358;11.140;2022-11-12T12:23:13;13.60;99.90
11961;DHT22;6040;49.358;11.140;2022-11-12T12:25:45;13.70;99.90
11961;DHT22;6040;49.358;11.140;2022-11-12T12:28:19;13.70;99.90
11961;DHT22;6040;49.358;11.140;2022-11-12T12:30:52;13.90;99.90
11961;DHT22;6040;49.358;11.140;2022-11-12T12:33:28;13.60;99.90
11961;DHT22;6040;49.358;11.140;2022-11-12T12:36:00;13.70;99.90
11961;DHT22;6040;49.358;11.140;2022-11-12T12:38:32;13.70;99.90
11961;DHT22;6040;49.358;11.140;2022-11-12T12:41:08;13.70;99.90
11961;DHT22;6040;49.358;11.140;2022-11-12T12:43:43;13.60;99.90
11961;DHT22;6040;49.358;11.140;2022-11-12T12:46:12;13.50;99.90
11961;DHT22;6040;49.358;11.140;2022-11-12T12:48:41;15.20;99.90
11961;DHT22;6040;49.358;11.140;2022-11-12T12:51:10;13.50;99.90
11961;DHT22;6040;49.358;11.140;2022-11-12T12:53:37;13.60;99.90
11961;DHT22;6040;49.358;11.140;2022-11-12T12:56:05;13.40;99.90
11961;DHT22;6040;49.358;11.140;2022-11-12T12:58:52;13.50;99.90
11961;DHT22;6040;49.358;11.140;2022-11-12T13:01:28;13.50;99.90
11961;DHT22;6040;49.358;11.140;2022-11-12T13:03:57;13.50;99.90
11961;DHT22;6040;49.358;11.140;2022-11-12T13:06:31;13.50;99.90
11961;DHT22;6040;49.358;11.140;2022-11-12T13:09:02;13.50;99.90
11961;DHT22;6040;49.358;11.140;2022-11-12T13:11:49;13.50;99.90
11961;DHT22;6040;49.358;11.140;2022-11-12T13:17:48;13.50;99.90
11961;DHT22;6040;49.358;11.140;2022-11-12T13:20:37;13.50;99.90
11961;DHT22;6040;49.358;11.140;2022-11-12T13:23:11;13.40;99.90
11961;DHT22;6040;49.358;11.140;2022-11-12T13:29:20;13.40;99.90
11961;DHT22;6040;49.358;11.140;2022-11-12T13:31:48;13.30;99.90
11961;DHT22;6040;49.358;11.140;2022-11-12T13:34:20;13.30;99.90
11961;DHT22;6040;49.358;11.140;2022-11-12T13:36:54;13.20;99.90
11961;DHT22;6040;49.358;11.140;2022-11-12T13:39:24;13.10;99.90
11961;DHT22;6040;49.358;11.140;2022-11-12T13:41:56;12.90;99.90
11961;DHT22;6040;49.358;11.140;2022-11-12T13:44:41;12.90;99.90
11961;DHT22;6040;49.358;11.140;2022-11-12T13:47:11;13.30;99.90
11961;DHT22;6040;49.358;11.140;2022-11-12T13:49:39;13.40;99.90
11961;DHT22;6040;49.358;11.140;2022-11-12T13:52:06;12.80;99.90
11961;DHT22;6040;49.358;11.140;2022-11-12T13:54:36;12.70;99.90
11961;DHT22;6040;49.358;11.140;2022-11-12T13:57:26;12.60;99.90
11961;DHT22;6040;49.358;11.140;2022-11-12T14:00:19;12.50;99.90
11961;DHT22;6040;49.358;11.140;2022-11-12T14:02:51;12.40;99.90
11961;DHT22;6040;49.358;11.140;2022-11-12T14:05:20;14.30;99.90
11961;DHT22;6040;49.358;11.140;2022-11-12T14:07:59;12.40;99.90
11961;DHT22;6040;49.358;11.140;2022-11-12T14:10:39;12.40;99.90
11961;DHT22;6040;49.358;11.140;2022-11-12T14:13:19;12.40;99.90
11961;DHT22;6040;49.358;11.140;2022-11-12T14:15:57;12.40;99.90
11961;DHT22;6040;49.358;11.140;2022-11-12T14:18:36;14.00;99.90
11961;DHT22;6040;49.358;11.140;2022-11-12T14:21:10;12.40;99.90
11961;DHT22;6040;49.358;11.140;2022-11-12T14:23:42;12.40;99.90
11961;DHT22;6040;49.358;11.140;2022-11-12T14:26:13;12.30;99.90
11961;DHT22;6040;49.358;11.140;2022-11-12T14:28:40;12.30;99.90
11961;DHT22;6040;49.358;11.140;2022-11-12T14:31:13;12.20;99.90
11961;DHT22;6040;49.358;11.140;2022-11-12T14:33:40;12.10;99.90
11961;DHT22;6040;49.358;11.140;2022-11-12T14:36:11;12.10;99.90
11961;DHT22;6040;49.358;11.140;2022-11-12T14:38:42;12.00;99.90
11961;DHT22;6040;49.358;11.140;2022-11-12T14:41:15;12.00;99.90
11961;DHT22;6040;49.358;11.140;2022-11-12T14:43:46;11.90;99.90
11961;DHT22;6040;49.358;11.140;2022-11-12T14:46:23;11.90;99.90
11961;DHT22;6040;49.358;11.140;2022-11-12T14:48:54;11.80;99.90
11961;DHT22;6040;49.358;11.140;2022-11-12T14:51:24;11.70;99.90
11961;DHT22;6040;49.358;11.140;2022-11-12T14:53:55;11.60;99.90
11961;DHT22;6040;49.358;11.140;2022-11-12T14:56:28;11.60;99.90
11961;DHT22;6040;49.358;11.140;2022-11-12T14:58:56;11.40;99.90
11961;DHT22;6040;49.358;11.140;2022-11-12T15:01:25;11.30;99.90
11961;DHT22;6040;49.358;11.140;2022-11-12T15:04:03;11.20;99.90
11961;DHT22;6040;49.358;11.140;2022-11-12T15:06:31;11.20;99.90
11961;DHT22;6040;49.358;11.140;2022-11-12T15:08:59;11.10;99.90
11961;DHT22;6040;49.358;11.140;2022-11-12T15:11:29;11.00;99.90
11961;DHT22;6040;49.358;11.140;2022-11-12T15:13:59;10.90;99.90
11961;DHT22;6040;49.358;11.140;2022-11-12T15:16:30;10.80;99.90
11961;DHT22;6040;49.358;11.140;2022-11-12T15:19:15;10.70;99.90
11961;DHT22;6040;49.358;11.140;2022-11-12T15:21:44;10.50;99.90
11961;DHT22;6040;49.358;11.140;2022-11-12T15:24:17;10.40;99.90
11961;DHT22;6040;49.358;11.140;2022-11-12T15:26:48;10.30;99.90
11961;DHT22;6040;49.358;11.140;2022-11-12T15:29:28;10.10;99.90
11961;DHT22;6040;49.358;11.140;2022-11-12T15:31:59;10.00;99.90
11961;DHT22;6040;49.358;11.140;2022-11-12T15:34:31;9.90;99.90
11961;DHT22;6040;49.358;11.140;2022-11-12T15:37:02;9.80;99.90
11961;DHT22;6040;49.358;11.140;2022-11-12T15:39:31;9.70;99.90
11961;DHT22;6040;49.358;11.140;2022-11-12T15:42:02;9.70;99.90
11961;DHT22;6040;49.358;11.140;2022-11-12T15:44:31;9.60;99.90
11961;DHT22;6040;49.358;11.140;2022-11-12T15:46:59;9.50;99.90
11961;DHT22;6040;49.358;11.140;2022-11-12T15:49:26;9.40;99.90
11961;DHT22;6040;49.358;11.140;2022-11-12T15:51:53;9.30;99.90
11961;DHT22;6040;49.358;11.140;2022-11-12T15:54:20;9.20;99.90
11961;DHT22;6040;49.358;11.140;2022-11-12T15:56:48;9.10;99.90
11961;DHT22;6040;49.358;11.140;2022-11-12T15:59:17;9.00;99.90
11961;DHT22;6040;49.358;11.140;2022-11-12T16:01:44;9.00;99.90
11961;DHT22;6040;49.358;11.140;2022-11-12T16:04:12;8.90;99.90
11961;DHT22;6040;49.358;11.140;2022-11-12T16:06:39;8.80;99.90
11961;DHT22;6040;49.358;11.140;2022-11-12T16:09:06;8.70;99.90
11961;DHT22;6040;49.358;11.140;2022-11-12T16:11:33;10.40;99.90